Time;durP1;ratioP1;P1;durP2;ratioP2;P2;SDS_P1;SDS_P2;PMS_P1;PMS_P2;Temp;Humidity;BMP_temperature;BMP_pressure;BME280_temperature;BME280_humidity;BME280_pressure;Samples;Min_cycle;Max_cycle;Signal;HPM_P1;HPM_P2
2021/04/19 00:01:57;;;;;;;;;;;9.20;99.90;;;;;;5090997;28;19920;-67
2021/04/19 00:04:22;;;;;;;;;;;9.20;99.90;;;;;;5089800;28;19993;-67
2021/04/19 00:06:50;;;;;;;;;;;9.20;99.90;;;;;;5088905;28;20385;-67
2021/04/19 00:09:15;;;;;;;;;;;9.30;99.90;;;;;;5090006;28;20425;-67
2021/04/19 00:11:43;;;;;;;;;;;9.30;99.90;;;;;;5088600;28;19915;-67
2021/04/19 00:14:11;;;;;;;;;;;9.30;99.90;;;;;;5092271;28;19916;-67
2021/04/19 00:16:37;;;;;;;;;;;9.30;99.90;;;;;;5089465;28;20332;-67
2021/04/19 00:19:02;;;;;;;;;;;9.30;99.90;;;;;;5093649;28;19912;-67
2021/04/19 00:21:28;;;;;;;;;;;9.30;99.90;;;;;;5087209;28;19920;-67
2021/04/19 00:23:56;;;;;;;;;;;9.30;99.90;;;;;;5088305;28;19948;-67
2021/04/19 00:26:21;;;;;;;;;;;9.30;99.90;;;;;;5088460;28;19935;-67
2021/04/19 00:28:47;;;;;;;;;;;9.30;99.90;;;;;;5087316;28;20276;-67
2021/04/19 00:31:12;;;;;;;;;;;9.30;99.90;;;;;;5087381;28;19923;-67
2021/04/19 00:33:38;;;;;;;;;;;9.30;99.90;;;;;;5089814;28;19920;-67
2021/04/19 00:36:06;;;;;;;;;;;9.30;99.90;;;;;;5089861;28;20588;-67
2021/04/19 00:38:32;;;;;;;;;;;9.30;99.90;;;;;;5090389;28;19974;-67
2021/04/19 00:41:00;;;;;;;;;;;9.30;99.90;;;;;;5087835;28;19940;-67
2021/04/19 00:43:26;;;;;;;;;;;9.20;99.90;;;;;;5074107;28;19937;-67
2021/04/19 00:46:01;;;;;;;;;;;9.20;99.90;;;;;;5086146;28;19991;-67
2021/04/19 00:48:27;;;;;;;;;;;9.30;99.90;;;;;;5093220;28;19920;-67
2021/04/19 00:50:55;;;;;;;;;;;9.20;99.90;;;;;;5084986;28;19977;-67
2021/04/19 00:53:21;;;;;;;;;;;9.30;99.90;;;;;;5088898;28;19919;-67
2021/04/19 00:55:46;;;;;;;;;;;9.20;99.90;;;;;;5087026;28;19930;-67
2021/04/19 00:58:14;;;;;;;;;;;9.20;99.90;;;;;;5079985;28;19912;-67
2021/04/19 01:00:42;;;;;;;;;;;9.20;99.90;;;;;;5093148;28;19918;-67
2021/04/19 01:03:10;;;;;;;;;;;9.00;99.90;;;;;;5094237;28;20106;-67
2021/04/19 01:05:36;;;;;;;;;;;9.10;99.90;;;;;;5092773;28;20018;-67
2021/04/19 01:08:02;;;;;;;;;;;9.00;99.90;;;;;;5093610;28;19953;-67
2021/04/19 01:10:27;;;;;;;;;;;9.00;99.90;;;;;;5093129;28;20011;-67
2021/04/19 01:12:58;;;;;;;;;;;9.00;99.90;;;;;;5092361;28;19920;-67
2021/04/19 01:15:25;;;;;;;;;;;9.10;99.90;;;;;;5092499;28;19916;-67
2021/04/19 01:17:53;;;;;;;;;;;9.00;99.90;;;;;;5085319;28;20011;-67
2021/04/19 01:20:20;;;;;;;;;;;9.00;99.90;;;;;;5077651;28;19974;-67
2021/04/19 01:22:46;;;;;;;;;;;9.00;99.90;;;;;;5073999;28;19916;-67
2021/04/19 01:25:13;;;;;;;;;;;9.00;99.90;;;;;;5073701;28;20448;-66
2021/04/19 01:27:38;;;;;;;;;;;9.00;99.90;;;;;;5109740;27;19920;-67
2021/04/19 01:30:04;;;;;;;;;;;8.90;99.90;;;;;;5093991;28;20436;-67
2021/04/19 01:32:30;;;;;;;;;;;8.90;99.90;;;;;;5094576;28;20401;-67
2021/04/19 01:34:55;;;;;;;;;;;8.90;99.90;;;;;;5090961;28;20049;-67
2021/04/19 01:37:21;;;;;;;;;;;8.90;99.90;;;;;;5089164;28;20349;-67
2021/04/19 01:39:47;;;;;;;;;;;8.90;99.90;;;;;;5077808;28;20352;-67
2021/04/19 01:42:15;;;;;;;;;;;8.90;99.90;;;;;;5077539;28;19916;-67
2021/04/19 01:44:40;;;;;;;;;;;8.90;99.90;;;;;;5077129;28;19916;-67
2021/04/19 01:47:06;;;;;;;;;;;8.90;99.90;;;;;;5078291;28;19920;-67
2021/04/19 01:49:33;;;;;;;;;;;8.80;99.90;;;;;;5061190;28;19939;-67
2021/04/19 01:52:00;;;;;;;;;;;8.80;99.90;;;;;;5062524;28;19912;-67
2021/04/19 01:54:28;;;;;;;;;;;8.80;99.90;;;;;;5081271;28;19927;-67
2021/04/19 01:56:56;;;;;;;;;;;8.80;99.90;;;;;;5078194;28;20015;-67
2021/04/19 01:59:27;;;;;;;;;;;8.80;99.90;;;;;;5078986;28;20365;-67
2021/04/19 02:01:52;;;;;;;;;;;8.80;99.90;;;;;;5077333;28;19916;-66
2021/04/19 02:04:19;;;;;;;;;;;8.70;99.90;;;;;;5078089;28;20332;-67
2021/04/19 02:06:47;;;;;;;;;;;8.70;99.90;;;;;;5077707;28;20341;-67
2021/04/19 02:09:23;;;;;;;;;;;8.60;99.90;;;;;;5106267;27;20307;-67
2021/04/19 02:11:52;;;;;;;;;;;8.60;99.90;;;;;;5087548;28;19963;-67
2021/04/19 02:14:36;;;;;;;;;;;8.50;99.90;;;;;;5090507;28;19920;-67
2021/04/19 02:17:02;;;;;;;;;;;8.50;99.90;;;;;;5094335;28;20214;-67
2021/04/19 02:19:34;;;;;;;;;;;8.40;99.90;;;;;;4742412;27;10000373;-67
2021/04/19 02:22:05;;;;;;;;;;;8.40;99.90;;;;;;5091133;28;19912;-67
2021/04/19 02:24:30;;;;;;;;;;;8.40;99.90;;;;;;5091889;28;19920;-67
2021/04/19 02:26:57;;;;;;;;;;;8.40;99.90;;;;;;5081203;28;19930;-67
2021/04/19 02:29:42;;;;;;;;;;;8.30;99.90;;;;;;5087379;28;19935;-67
2021/04/19 02:32:10;;;;;;;;;;;8.20;99.90;;;;;;5088133;28;20517;-67
2021/04/19 02:34:38;;;;;;;;;;;8.20;99.90;;;;;;5090865;28;19916;-67
2021/04/19 02:37:04;;;;;;;;;;;8.20;99.90;;;;;;5092523;28;19912;-67
2021/04/19 02:39:30;;;;;;;;;;;8.20;99.90;;;;;;5065270;28;19917;-67
2021/04/19 02:41:56;;;;;;;;;;;8.30;99.90;;;;;;5078160;28;19916;-67
2021/04/19 02:44:21;;;;;;;;;;;8.30;99.90;;;;;;5077451;28;19930;-67
2021/04/19 02:46:52;;;;;;;;;;;8.30;99.90;;;;;;5076646;28;20490;-67
2021/04/19 02:49:20;;;;;;;;;;;8.30;99.90;;;;;;5091016;28;19916;-67
2021/04/19 02:51:48;;;;;;;;;;;8.30;99.90;;;;;;5090171;28;19923;-67
2021/04/19 02:54:14;;;;;;;;;;;8.40;99.90;;;;;;5089656;28;19931;-67
2021/04/19 02:56:39;;;;;;;;;;;8.40;99.90;;;;;;5076216;28;21384;-67
2021/04/19 02:59:07;;;;;;;;;;;8.40;99.90;;;;;;5077283;28;19922;-67
2021/04/19 03:01:33;;;;;;;;;;;8.40;99.90;;;;;;5090909;28;19916;-67
2021/04/19 03:04:01;;;;;;;;;;;8.40;99.90;;;;;;5076460;28;19931;-67
2021/04/19 03:06:28;;;;;;;;;;;8.40;99.90;;;;;;5091660;27;19931;-67
2021/04/19 03:09:00;;;;;;;;;;;8.30;99.90;;;;;;5076440;28;19954;-67
2021/04/19 03:11:28;;;;;;;;;;;8.30;99.90;;;;;;5089298;28;19924;-67
2021/04/19 03:13:54;;;;;;;;;;;8.30;99.90;;;;;;5084421;28;20352;-67
2021/04/19 03:16:23;;;;;;;;;;;8.30;99.90;;;;;;5081649;28;19920;-67
2021/04/19 03:18:49;;;;;;;;;;;8.30;99.90;;;;;;5074171;28;19927;-67
2021/04/19 03:21:21;;;;;;;;;;;8.30;99.90;;;;;;5078958;28;19916;-67
2021/04/19 03:23:50;;;;;;;;;;;8.30;99.90;;;;;;5091489;27;19920;-67
2021/04/19 03:26:16;;;;;;;;;;;8.30;99.90;;;;;;5078796;28;19954;-66
2021/04/19 03:28:42;;;;;;;;;;;8.20;99.90;;;;;;5090896;28;19977;-67
2021/04/19 03:31:09;;;;;;;;;;;8.20;99.90;;;;;;5090706;28;19924;-67
2021/04/19 03:33:36;;;;;;;;;;;8.20;99.90;;;;;;5078584;28;19927;-66
2021/04/19 03:36:01;;;;;;;;;;;8.20;99.90;;;;;;5074741;28;19955;-67
2021/04/19 03:38:27;;;;;;;;;;;8.20;99.90;;;;;;5089311;28;20370;-67
2021/04/19 03:40:52;;;;;;;;;;;8.10;99.90;;;;;;5089137;28;19931;-66
2021/04/19 03:43:25;;;;;;;;;;;8.10;99.90;;;;;;5070274;28;19912;-67
2021/04/19 03:45:54;;;;;;;;;;;8.10;99.90;;;;;;5087807;28;19966;-67
2021/04/19 03:48:22;;;;;;;;;;;8.00;99.90;;;;;;5095213;28;19916;-67
2021/04/19 03:50:48;;;;;;;;;;;8.10;99.90;;;;;;5086697;28;19912;-67
2021/04/19 03:53:14;;;;;;;;;;;8.10;99.90;;;;;;5074417;28;20541;-67
2021/04/19 03:55:42;;;;;;;;;;;8.10;99.90;;;;;;5087110;28;19912;-69
2021/04/19 03:58:10;;;;;;;;;;;8.10;99.90;;;;;;5074775;28;19980;-68
2021/04/19 04:00:36;;;;;;;;;;;8.20;99.90;;;;;;5072272;28;20280;-68
2021/04/19 04:03:02;;;;;;;;;;;8.20;99.90;;;;;;5077567;28;19924;-68
2021/04/19 04:05:30;;;;;;;;;;;8.00;99.90;;;;;;5079423;28;20003;-68
2021/04/19 04:07:56;;;;;;;;;;;8.00;99.90;;;;;;5078995;28;19927;-68
2021/04/19 04:10:22;;;;;;;;;;;7.90;99.90;;;;;;5071577;28;19916;-68
2021/04/19 04:12:48;;;;;;;;;;;7.90;99.90;;;;;;5088652;28;19924;-68
2021/04/19 04:15:16;;;;;;;;;;;8.00;99.90;;;;;;5079170;28;20419;-68
2021/04/19 04:17:42;;;;;;;;;;;7.90;99.90;;;;;;5091077;28;19912;-68
2021/04/19 04:20:10;;;;;;;;;;;7.90;99.90;;;;;;5085683;28;21736;-68
2021/04/19 04:22:38;;;;;;;;;;;7.90;99.90;;;;;;5074051;28;19920;-68
2021/04/19 04:25:06;;;;;;;;;;;7.90;99.90;;;;;;5077312;28;19963;-67
2021/04/19 04:27:31;;;;;;;;;;;7.80;99.90;;;;;;5083664;28;19931;-68
2021/04/19 04:30:01;;;;;;;;;;;7.90;99.90;;;;;;5087648;28;21567;-68
2021/04/19 04:32:26;;;;;;;;;;;7.80;99.90;;;;;;5088897;28;20395;-67
2021/04/19 04:34:52;;;;;;;;;;;7.70;99.90;;;;;;5083333;28;19944;-68
2021/04/19 04:37:19;;;;;;;;;;;7.70;99.90;;;;;;5087190;28;20059;-68
2021/04/19 04:39:45;;;;;;;;;;;7.70;99.90;;;;;;5082723;28;19920;-68
2021/04/19 04:42:14;;;;;;;;;;;7.70;99.90;;;;;;5091801;28;19916;-68
2021/04/19 04:44:41;;;;;;;;;;;7.50;99.90;;;;;;5078168;28;19927;-68
2021/04/19 04:47:12;;;;;;;;;;;7.50;99.90;;;;;;5067648;28;19939;-68
2021/04/19 04:50:01;;;;;;;;;;;7.50;99.90;;;;;;5088564;28;19916;-68
2021/04/19 04:52:27;;;;;;;;;;;7.50;99.90;;;;;;5087358;28;19916;-68
2021/04/19 04:54:53;;;;;;;;;;;7.50;99.90;;;;;;5080736;28;19927;-69
2021/04/19 04:57:23;;;;;;;;;;;7.50;99.90;;;;;;5078684;28;19920;-68
2021/04/19 04:59:49;;;;;;;;;;;7.50;99.90;;;;;;5086234;28;19959;-68
2021/04/19 05:02:14;;;;;;;;;;;7.50;99.90;;;;;;5104528;28;20676;-68
2021/04/19 05:04:42;;;;;;;;;;;7.50;99.90;;;;;;5084569;28;19913;-68
2021/04/19 05:07:08;;;;;;;;;;;7.50;99.90;;;;;;5079487;28;20428;-68
2021/04/19 05:09:33;;;;;;;;;;;7.40;99.90;;;;;;5085563;28;19928;-68
2021/04/19 05:11:59;;;;;;;;;;;7.40;99.90;;;;;;5086709;28;19917;-68
2021/04/19 05:14:25;;;;;;;;;;;7.40;99.90;;;;;;5075379;28;19966;-68
2021/04/19 05:16:53;;;;;;;;;;;7.40;99.90;;;;;;5107079;28;19928;-68
2021/04/19 05:19:19;;;;;;;;;;;7.40;99.90;;;;;;5086383;28;19919;-68
2021/04/19 05:21:49;;;;;;;;;;;7.40;99.90;;;;;;5086248;28;19923;-68
2021/04/19 05:24:19;;;;;;;;;;;7.40;99.90;;;;;;5085418;28;20007;-68
2021/04/19 05:26:47;;;;;;;;;;;7.40;99.90;;;;;;5091770;28;19916;-68
2021/04/19 05:29:13;;;;;;;;;;;7.40;99.90;;;;;;5081810;28;19927;-68
2021/04/19 05:31:43;;;;;;;;;;;7.40;99.90;;;;;;5086173;28;19934;-67
2021/04/19 05:34:08;;;;;;;;;;;7.40;99.90;;;;;;5087686;28;20353;-68
2021/04/19 05:36:34;;;;;;;;;;;7.40;99.90;;;;;;5085548;28;19920;-68
2021/04/19 05:38:59;;;;;;;;;;;7.40;99.90;;;;;;5072119;28;19912;-68
2021/04/19 05:41:25;;;;;;;;;;;7.40;99.90;;;;;;5089122;28;19911;-68
2021/04/19 05:43:53;;;;;;;;;;;7.40;99.90;;;;;;5090427;28;19919;-68
2021/04/19 05:46:18;;;;;;;;;;;7.40;99.90;;;;;;5090587;28;19912;-68
2021/04/19 05:48:46;;;;;;;;;;;7.40;99.90;;;;;;5076081;28;19916;-68
2021/04/19 05:51:18;;;;;;;;;;;7.50;99.90;;;;;;5093548;28;20006;-68
2021/04/19 05:53:43;;;;;;;;;;;7.40;99.90;;;;;;5087982;28;19920;-68
2021/04/19 05:56:12;;;;;;;;;;;7.50;99.90;;;;;;5080557;28;19923;-68
2021/04/19 05:58:41;;;;;;;;;;;7.50;99.90;;;;;;5090956;28;19920;-68
2021/04/19 06:01:13;;;;;;;;;;;7.50;99.90;;;;;;5089310;28;20341;-68
2021/04/19 06:03:38;;;;;;;;;;;7.60;99.90;;;;;;5094128;28;19916;-68
2021/04/19 06:06:15;;;;;;;;;;;7.70;99.90;;;;;;5088595;28;20030;-68
2021/04/19 06:08:52;;;;;;;;;;;7.70;99.90;;;;;;5090562;28;19924;-67
2021/04/19 06:11:28;;;;;;;;;;;7.80;99.90;;;;;;5089007;28;19998;-68
2021/04/19 06:13:53;;;;;;;;;;;7.80;99.90;;;;;;5082521;28;20011;-68
2021/04/19 06:16:19;;;;;;;;;;;7.90;99.90;;;;;;5093533;28;20041;-68
2021/04/19 06:18:44;;;;;;;;;;;8.00;99.90;;;;;;5092346;28;19923;-68
2021/04/19 06:21:13;;;;;;;;;;;8.10;99.90;;;;;;5093130;28;19912;-68
2021/04/19 06:23:41;;;;;;;;;;;8.20;99.90;;;;;;5091522;28;20000;-68
2021/04/19 06:26:07;;;;;;;;;;;8.20;99.90;;;;;;5110088;27;20011;-68
2021/04/19 06:28:32;;;;;;;;;;;8.20;99.90;;;;;;5075843;28;20004;-67
2021/04/19 06:30:58;;;;;;;;;;;8.30;99.90;;;;;;5103099;27;19916;-67
2021/04/19 06:33:30;;;;;;;;;;;8.30;99.90;;;;;;5090842;28;19956;-68
2021/04/19 06:35:56;;;;;;;;;;;8.40;99.90;;;;;;5089799;28;21125;-67
2021/04/19 06:38:22;;;;;;;;;;;8.50;99.90;;;;;;5092738;28;19928;-68
2021/04/19 06:40:50;;;;;;;;;;;8.50;99.90;;;;;;5086648;28;19920;-68
2021/04/19 06:43:15;;;;;;;;;;;8.60;99.90;;;;;;5093610;28;20045;-68
2021/04/19 06:45:43;;;;;;;;;;;8.70;99.90;;;;;;5090720;28;19983;-68
2021/04/19 06:48:09;;;;;;;;;;;8.60;99.90;;;;;;5091555;28;19923;-68
2021/04/19 06:50:35;;;;;;;;;;;8.80;99.90;;;;;;5089958;28;20509;-68
2021/04/19 06:53:03;;;;;;;;;;;8.70;99.90;;;;;;5124588;27;19916;-67
2021/04/19 06:55:38;;;;;;;;;;;8.70;99.90;;;;;;5071391;28;19912;-68
2021/04/19 06:58:09;;;;;;;;;;;8.80;99.90;;;;;;5088309;28;19916;-68
2021/04/19 07:00:37;;;;;;;;;;;8.90;99.90;;;;;;5103082;27;20401;-68
2021/04/19 07:03:03;;;;;;;;;;;8.90;99.90;;;;;;5089564;28;20007;-68
2021/04/19 07:05:30;;;;;;;;;;;9.00;99.90;;;;;;5078112;28;20509;-68
2021/04/19 07:07:59;;;;;;;;;;;9.00;99.90;;;;;;5126403;27;19912;-68
2021/04/19 07:10:26;;;;;;;;;;;9.10;99.90;;;;;;5087217;28;19923;-68
2021/04/19 07:12:52;;;;;;;;;;;9.00;99.90;;;;;;5121873;27;20516;-68
2021/04/19 07:15:20;;;;;;;;;;;9.00;99.90;;;;;;5092741;28;20011;-68
2021/04/19 07:17:47;;;;;;;;;;;9.10;99.90;;;;;;5086238;28;19976;-68
2021/04/19 07:20:13;;;;;;;;;;;9.20;99.90;;;;;;5092339;28;19954;-68
2021/04/19 07:22:39;;;;;;;;;;;9.30;99.90;;;;;;5091194;28;19959;-68
2021/04/19 07:25:06;;;;;;;;;;;9.40;99.90;;;;;;5104298;27;20285;-68
2021/04/19 07:27:31;;;;;;;;;;;9.50;99.90;;;;;;5076350;28;19919;-68
2021/04/19 07:29:57;;;;;;;;;;;9.60;99.90;;;;;;5089639;28;19927;-68
2021/04/19 07:32:34;;;;;;;;;;;9.70;99.90;;;;;;5093180;28;19908;-67
2021/04/19 07:35:00;;;;;;;;;;;9.50;99.90;;;;;;5087868;28;19912;-68
2021/04/19 07:37:28;;;;;;;;;;;9.70;99.90;;;;;;5086751;28;19913;-67
2021/04/19 07:39:56;;;;;;;;;;;9.70;99.90;;;;;;5089600;28;19916;-68
2021/04/19 07:42:22;;;;;;;;;;;9.80;99.90;;;;;;5090808;28;19916;-68
2021/04/19 07:44:50;;;;;;;;;;;9.80;99.90;;;;;;5089105;28;20086;-67
2021/04/19 07:47:19;;;;;;;;;;;9.70;99.90;;;;;;5087814;28;20518;-67
2021/04/19 07:49:56;;;;;;;;;;;9.80;99.90;;;;;;5092440;28;19915;-67
2021/04/19 07:52:24;;;;;;;;;;;9.80;99.90;;;;;;5091203;28;19948;-67
2021/04/19 07:55:15;;;;;;;;;;;9.90;99.90;;;;;;5092550;28;19912;-67
2021/04/19 07:57:41;;;;;;;;;;;10.10;99.90;;;;;;5090535;28;19927;-68
2021/04/19 08:00:09;;;;;;;;;;;10.20;99.90;;;;;;5088492;28;19920;-68
2021/04/19 08:02:35;;;;;;;;;;;10.20;99.90;;;;;;5086250;28;19944;-68
2021/04/19 08:05:05;;;;;;;;;;;10.30;99.90;;;;;;5087526;28;20000;-68
2021/04/19 08:07:31;;;;;;;;;;;10.40;99.90;;;;;;5087230;28;19944;-68
2021/04/19 08:10:01;;;;;;;;;;;10.50;99.90;;;;;;5072266;28;20045;-67
2021/04/19 08:12:45;;;;;;;;;;;10.60;99.90;;;;;;5085221;28;19930;-68
2021/04/19 08:15:13;;;;;;;;;;;10.60;99.90;;;;;;5092161;28;19924;-68
2021/04/19 08:17:38;;;;;;;;;;;10.70;99.90;;;;;;5081256;28;19912;-67
2021/04/19 08:20:07;;;;;;;;;;;10.60;99.90;;;;;;5086005;28;19946;-67
2021/04/19 08:22:33;;;;;;;;;;;10.70;99.90;;;;;;5088555;28;19927;-67
2021/04/19 08:25:08;;;;;;;;;;;10.80;99.90;;;;;;5082674;28;19917;-66
2021/04/19 08:27:33;;;;;;;;;;;11.00;99.90;;;;;;5102255;28;19999;-67
2021/04/19 08:29:59;;;;;;;;;;;11.00;99.90;;;;;;5083484;28;20456;-68
2021/04/19 08:32:29;;;;;;;;;;;11.10;99.90;;;;;;5088659;28;19916;-68
2021/04/19 08:34:54;;;;;;;;;;;11.40;99.90;;;;;;5081257;28;19927;-68
2021/04/19 08:37:20;;;;;;;;;;;11.60;99.90;;;;;;5081212;28;19920;-67
2021/04/19 08:39:49;;;;;;;;;;;11.80;99.90;;;;;;5091849;28;19972;-67
2021/04/19 08:42:17;;;;;;;;;;;11.90;99.90;;;;;;5087010;28;19920;-67
2021/04/19 08:44:42;;;;;;;;;;;12.20;99.90;;;;;;5084007;28;19955;-68
2021/04/19 08:47:09;;;;;;;;;;;12.30;99.90;;;;;;5086404;28;20426;-67
2021/04/19 08:49:36;;;;;;;;;;;12.60;99.90;;;;;;5083153;28;19920;-67
2021/04/19 08:52:07;;;;;;;;;;;12.70;99.90;;;;;;5087464;28;19927;-67
2021/04/19 08:54:32;;;;;;;;;;;12.40;99.90;;;;;;5084960;28;19916;-67
2021/04/19 08:56:58;;;;;;;;;;;12.50;99.90;;;;;;5089158;28;19912;-68
2021/04/19 08:59:23;;;;;;;;;;;12.50;99.90;;;;;;5085346;28;19964;-67
2021/04/19 09:01:50;;;;;;;;;;;12.40;99.90;;;;;;5092928;28;19916;-68
2021/04/19 09:04:20;;;;;;;;;;;12.50;99.90;;;;;;5090340;28;19912;-67
2021/04/19 09:06:48;;;;;;;;;;;12.70;99.90;;;;;;5105282;28;20007;-68
2021/04/19 09:09:14;;;;;;;;;;;12.80;99.90;;;;;;5087194;28;19916;-67
2021/04/19 09:11:42;;;;;;;;;;;12.80;99.90;;;;;;5070783;28;19916;-67
2021/04/19 09:14:10;;;;;;;;;;;12.90;99.90;;;;;;5088227;28;19938;-67
2021/04/19 09:16:39;;;;;;;;;;;13.10;99.90;;;;;;5089770;28;19927;-67
2021/04/19 09:19:05;;;;;;;;;;;13.30;99.90;;;;;;5092845;28;19916;-67
2021/04/19 09:21:56;;;;;;;;;;;13.40;99.90;;;;;;5092246;28;20348;-67
2021/04/19 09:24:22;;;;;;;;;;;13.60;99.90;;;;;;5087888;28;19912;-67
2021/04/19 09:26:52;;;;;;;;;;;13.70;99.90;;;;;;5093501;28;19930;-68
2021/04/19 09:29:23;;;;;;;;;;;13.60;92.40;;;;;;5090989;28;19931;-68
2021/04/19 09:31:59;;;;;;;;;;;13.50;99.90;;;;;;5106140;27;20007;-68
2021/04/19 09:34:35;;;;;;;;;;;13.70;99.90;;;;;;5088999;28;19923;-68
2021/04/19 09:37:01;;;;;;;;;;;13.60;99.50;;;;;;5118400;27;19923;-67
2021/04/19 09:39:45;;;;;;;;;;;13.80;99.90;;;;;;5093833;28;19916;-67
2021/04/19 09:42:11;;;;;;;;;;;13.60;95.90;;;;;;5129652;27;19980;-67
2021/04/19 09:44:49;;;;;;;;;;;13.50;97.30;;;;;;5090910;28;19920;-67
2021/04/19 09:47:35;;;;;;;;;;;13.60;97.10;;;;;;5104801;27;20297;-67
2021/04/19 09:50:02;;;;;;;;;;;13.80;95.10;;;;;;5081697;28;19985;-68
2021/04/19 09:52:28;;;;;;;;;;;13.90;99.90;;;;;;5093260;28;19999;-68
2021/04/19 09:54:53;;;;;;;;;;;14.10;99.90;;;;;;5105147;27;19980;-67
2021/04/19 09:57:19;;;;;;;;;;;14.00;94.80;;;;;;5088288;28;20011;-67
2021/04/19 09:59:44;;;;;;;;;;;13.80;91.70;;;;;;5110199;27;19912;-68
2021/04/19 10:02:10;;;;;;;;;;;14.00;99.90;;;;;;5079038;28;19911;-68
2021/04/19 10:04:35;;;;;;;;;;;14.00;91.90;;;;;;5093067;28;19951;-68
2021/04/19 10:07:01;;;;;;;;;;;13.90;91.60;;;;;;5096436;28;19931;-68
2021/04/19 10:09:32;;;;;;;;;;;13.70;92.80;;;;;;5076709;28;19923;-68
2021/04/19 10:11:58;;;;;;;;;;;13.40;96.70;;;;;;5095284;28;19966;-67
2021/04/19 10:14:26;;;;;;;;;;;13.40;98.60;;;;;;5090462;28;20548;-68
2021/04/19 10:16:51;;;;;;;;;;;13.10;95.50;;;;;;5093811;28;20366;-67
2021/04/19 10:19:23;;;;;;;;;;;13.30;97.40;;;;;;5087365;28;19921;-68
2021/04/19 10:22:18;;;;;;;;;;;13.30;94.80;;;;;;5087462;28;19990;-71
2021/04/19 10:24:52;;;;;;;;;;;13.20;95.60;;;;;;5076238;27;19921;-69
2021/04/19 10:27:24;;;;;;;;;;;13.10;98.70;;;;;;5088921;27;19958;-69
2021/04/19 10:29:52;;;;;;;;;;;13.00;99.90;;;;;;5089481;28;19971;-69
2021/04/19 10:32:30;;;;;;;;;;;13.10;99.90;;;;;;5090150;28;20022;-69
2021/04/19 10:34:55;;;;;;;;;;;13.00;95.20;;;;;;5094246;28;19989;-68
2021/04/19 10:37:21;;;;;;;;;;;12.70;96.60;;;;;;5085375;28;19916;-68
2021/04/19 10:39:49;;;;;;;;;;;12.70;95.70;;;;;;5086960;28;19919;-69
2021/04/19 10:42:21;;;;;;;;;;;12.60;95.20;;;;;;5090013;28;20049;-68
2021/04/19 10:44:49;;;;;;;;;;;12.50;98.70;;;;;;5088703;28;19916;-69
2021/04/19 10:47:24;;;;;;;;;;;12.50;99.90;;;;;;5091413;28;19912;-69
2021/04/19 10:49:50;;;;;;;;;;;12.50;99.90;;;;;;5090943;28;19924;-69
2021/04/19 10:52:15;;;;;;;;;;;12.40;99.50;;;;;;5088971;28;20234;-69
2021/04/19 10:54:42;;;;;;;;;;;12.50;98.30;;;;;;5088044;28;19920;-69
2021/04/19 10:57:10;;;;;;;;;;;12.40;99.90;;;;;;5089365;28;19916;-68
2021/04/19 10:59:35;;;;;;;;;;;12.50;98.90;;;;;;5086982;28;19928;-68
2021/04/19 11:02:02;;;;;;;;;;;12.50;98.20;;;;;;5088531;28;19978;-70
2021/04/19 11:04:28;;;;;;;;;;;12.60;99.90;;;;;;5090836;28;19919;-70
2021/04/19 11:06:53;;;;;;;;;;;12.40;97.20;;;;;;5086170;28;20418;-69
2021/04/19 11:09:19;;;;;;;;;;;12.40;98.50;;;;;;5086202;28;19920;-69
2021/04/19 11:11:46;;;;;;;;;;;12.40;99.90;;;;;;5091495;28;19959;-69
2021/04/19 11:14:11;;;;;;;;;;;12.40;99.90;;;;;;5070817;28;20019;-69
2021/04/19 11:16:49;;;;;;;;;;;12.40;97.70;;;;;;5094135;28;20010;-69
2021/04/19 11:19:33;;;;;;;;;;;12.60;99.90;;;;;;5089663;28;20002;-69
2021/04/19 11:21:59;;;;;;;;;;;12.50;97.10;;;;;;5104781;27;19981;-69
2021/04/19 11:24:37;;;;;;;;;;;12.50;99.90;;;;;;5086732;28;19912;-69
2021/04/19 11:27:09;;;;;;;;;;;12.50;97.40;;;;;;5089709;28;19920;-68
2021/04/19 11:29:41;;;;;;;;;;;12.50;99.60;;;;;;5087979;28;19931;-68
2021/04/19 11:32:10;;;;;;;;;;;12.60;94.80;;;;;;5090310;28;20427;-69
2021/04/19 11:34:41;;;;;;;;;;;12.70;99.90;;;;;;5088831;28;19996;-68
2021/04/19 11:37:06;;;;;;;;;;;12.90;99.90;;;;;;5105005;27;19991;-69
2021/04/19 11:39:37;;;;;;;;;;;13.10;99.90;;;;;;5095849;28;19991;-69
2021/04/19 11:42:02;;;;;;;;;;;13.30;99.90;;;;;;5087418;28;19916;-69
2021/04/19 11:44:47;;;;;;;;;;;13.30;95.90;;;;;;5109784;27;19923;-69
2021/04/19 11:47:14;;;;;;;;;;;13.40;93.60;;;;;;5090872;28;19922;-69
2021/04/19 11:49:40;;;;;;;;;;;13.30;95.10;;;;;;5089591;28;20061;-68
2021/04/19 11:52:05;;;;;;;;;;;13.30;93.20;;;;;;5092950;28;20003;-68
2021/04/19 11:54:33;;;;;;;;;;;13.40;96.80;;;;;;5087150;28;19969;-68
2021/04/19 11:57:01;;;;;;;;;;;13.40;94.70;;;;;;5087564;28;19912;-68
2021/04/19 11:59:27;;;;;;;;;;;13.40;92.80;;;;;;5089235;28;19920;-69
2021/04/19 12:01:52;;;;;;;;;;;13.50;93.50;;;;;;5078526;28;19973;-71
2021/04/19 12:04:18;;;;;;;;;;;13.60;98.40;;;;;;5088568;28;20000;-70
2021/04/19 12:06:43;;;;;;;;;;;13.20;88.00;;;;;;5089968;28;20245;-68
2021/04/19 12:09:09;;;;;;;;;;;13.20;93.40;;;;;;5089252;28;20328;-69
2021/04/19 12:11:34;;;;;;;;;;;13.20;93.20;;;;;;5086236;28;19918;-69
2021/04/19 12:14:01;;;;;;;;;;;13.10;94.20;;;;;;5087932;28;19916;-69
2021/04/19 12:16:30;;;;;;;;;;;13.10;90.90;;;;;;5088342;28;20525;-70
2021/04/19 12:18:56;;;;;;;;;;;13.10;92.60;;;;;;5091332;28;19951;-70
2021/04/19 12:21:21;;;;;;;;;;;13.00;94.80;;;;;;5083210;28;20105;-69
2021/04/19 12:23:47;;;;;;;;;;;13.00;95.80;;;;;;5086164;28;19916;-70
2021/04/19 12:26:15;;;;;;;;;;;12.90;93.20;;;;;;5087036;28;19920;-69
2021/04/19 12:28:40;;;;;;;;;;;13.00;94.40;;;;;;5087765;28;20010;-69
2021/04/19 12:31:07;;;;;;;;;;;12.90;91.50;;;;;;5087822;28;19994;-69
2021/04/19 12:33:32;;;;;;;;;;;12.90;92.70;;;;;;5088465;28;19920;-69
2021/04/19 12:35:58;;;;;;;;;;;12.80;91.40;;;;;;5087898;28;19912;-69
2021/04/19 12:38:23;;;;;;;;;;;12.60;88.20;;;;;;5091727;28;19915;-69
2021/04/19 12:40:51;;;;;;;;;;;12.70;92.10;;;;;;5087052;28;19920;-69
2021/04/19 12:43:17;;;;;;;;;;;12.70;93.00;;;;;;5088945;28;19923;-69
2021/04/19 12:45:44;;;;;;;;;;;12.50;87.50;;;;;;5087107;28;19912;-70
2021/04/19 12:48:10;;;;;;;;;;;12.60;94.00;;;;;;5086493;28;19917;-69
2021/04/19 12:50:37;;;;;;;;;;;12.70;94.40;;;;;;5078217;28;20001;-69
2021/04/19 12:53:03;;;;;;;;;;;12.80;90.30;;;;;;5089032;28;20024;-69
2021/04/19 12:55:31;;;;;;;;;;;12.90;92.40;;;;;;5108847;27;19931;-69
2021/04/19 12:57:56;;;;;;;;;;;13.00;93.00;;;;;;5089029;28;19920;-69
2021/04/19 13:00:22;;;;;;;;;;;13.00;89.70;;;;;;5089716;28;19916;-69
2021/04/19 13:02:48;;;;;;;;;;;13.10;92.60;;;;;;5091904;28;19917;-69
2021/04/19 13:05:16;;;;;;;;;;;13.00;87.10;;;;;;5092057;28;19924;-70
2021/04/19 13:07:41;;;;;;;;;;;13.10;92.70;;;;;;5088382;28;19920;-69
2021/04/19 13:10:07;;;;;;;;;;;13.20;90.40;;;;;;5092436;28;20360;-69
2021/04/19 13:12:35;;;;;;;;;;;13.30;91.50;;;;;;5091948;28;19959;-69
2021/04/19 13:15:03;;;;;;;;;;;13.30;94.10;;;;;;5090662;28;20379;-70
2021/04/19 13:17:29;;;;;;;;;;;13.40;90.30;;;;;;5092536;27;19922;-69
2021/04/19 13:19:58;;;;;;;;;;;13.50;90.40;;;;;;5091381;28;19985;-69
2021/04/19 13:22:25;;;;;;;;;;;13.50;93.50;;;;;;5091394;28;19951;-69
2021/04/19 13:24:51;;;;;;;;;;;13.30;90.80;;;;;;5088371;28;19923;-69
2021/04/19 13:27:21;;;;;;;;;;;13.50;91.50;;;;;;5096096;28;20266;-69
2021/04/19 13:29:50;;;;;;;;;;;13.60;93.40;;;;;;5089829;28;20086;-69
2021/04/19 13:32:16;;;;;;;;;;;13.70;97.90;;;;;;5089078;28;19943;-69
2021/04/19 13:34:42;;;;;;;;;;;13.90;92.90;;;;;;5091301;28;19927;-70
2021/04/19 13:37:08;;;;;;;;;;;13.80;84.10;;;;;;5089639;28;19962;-69
2021/04/19 13:39:36;;;;;;;;;;;13.90;86.70;;;;;;5090432;28;20519;-69
2021/04/19 13:42:01;;;;;;;;;;;13.90;89.50;;;;;;5090595;28;19926;-70
2021/04/19 13:44:27;;;;;;;;;;;13.80;83.90;;;;;;5092391;28;20265;-69
2021/04/19 13:46:52;;;;;;;;;;;13.90;90.80;;;;;;5090304;28;19912;-69
2021/04/19 13:49:18;;;;;;;;;;;14.10;85.60;;;;;;5091473;28;19924;-70
2021/04/19 13:51:44;;;;;;;;;;;14.30;82.10;;;;;;5089422;28;19917;-69
2021/04/19 13:54:09;;;;;;;;;;;14.40;79.20;;;;;;5093897;28;20335;-69
2021/04/19 13:56:35;;;;;;;;;;;14.60;81.80;;;;;;5091418;28;19974;-69
2021/04/19 13:59:01;;;;;;;;;;;14.60;80.00;;;;;;5093397;28;20536;-69
2021/04/19 14:01:30;;;;;;;;;;;14.80;82.30;;;;;;5090068;28;19927;-69
2021/04/19 14:03:56;;;;;;;;;;;15.00;74.00;;;;;;5093478;28;19912;-69
2021/04/19 14:06:26;;;;;;;;;;;14.90;69.70;;;;;;5093010;28;20246;-69
2021/04/19 14:08:54;;;;;;;;;;;14.80;69.80;;;;;;5096766;28;20003;-69
2021/04/19 14:11:20;;;;;;;;;;;14.80;70.50;;;;;;5092329;28;19923;-69
2021/04/19 14:13:45;;;;;;;;;;;14.80;70.70;;;;;;5092718;28;19920;-69
2021/04/19 14:16:11;;;;;;;;;;;15.00;72.90;;;;;;5091290;28;20003;-69
2021/04/19 14:18:37;;;;;;;;;;;15.10;78.10;;;;;;5093209;28;19970;-69
2021/04/19 14:21:06;;;;;;;;;;;15.20;75.30;;;;;;5087719;28;19922;-69
2021/04/19 14:23:35;;;;;;;;;;;15.30;69.50;;;;;;5092534;28;20023;-70
2021/04/19 14:26:03;;;;;;;;;;;15.50;70.70;;;;;;5086456;28;19921;-69
2021/04/19 14:28:30;;;;;;;;;;;15.60;71.30;;;;;;5090117;28;19927;-69